Time;durP1;ratioP1;P1;durP2;ratioP2;P2;SDS_P1;SDS_P2;PMS_P1;PMS_P2;Temp;Humidity;BMP_temperature;BMP_pressure;BME280_temperature;BME280_humidity;BME280_pressure;Samples;Min_cycle;Max_cycle;Signal;HPM_P1;HPM_P2
2021/04/02 00:01:03;;;;;;;3.30;1.30;;;;;;;;;;5070020;28;20468;-76
2021/04/02 00:03:34;;;;;;;2.95;1.23;;;;;;;;;;5054740;28;20498;-77
2021/04/02 00:05:59;;;;;;;2.60;1.27;;;;;;;;;;5023096;28;20035;-76
2021/04/02 00:08:25;;;;;;;3.40;1.30;;;;;;;;;;5055322;28;20028;-76
2021/04/02 00:10:51;;;;;;;2.90;1.10;;;;;;;;;;5038105;28;20030;-77
2021/04/02 00:13:17;;;;;;;1.65;1.00;;;;;;;;;;5065003;28;20029;-76
2021/04/02 00:15:43;;;;;;;;;;;;;;;;;;5035578;28;20029;-76
2021/04/02 00:18:09;;;;;;;2.35;1.20;;;;;;;;;;5054851;28;20279;-77
2021/04/02 00:20:34;;;;;;;2.40;1.20;;;;;;;;;;5022236;28;20024;-77
2021/04/02 00:22:59;;;;;;;2.13;1.17;;;;;;;;;;5067498;28;20024;-77
2021/04/02 00:25:26;;;;;;;2.63;1.17;;;;;;;;;;5052938;28;20036;-77
2021/04/02 00:27:51;;;;;;;2.08;1.10;;;;;;;;;;5051596;28;20025;-77
2021/04/02 00:30:19;;;;;;;3.13;1.20;;;;;;;;;;5018520;28;20035;-77
2021/04/02 00:32:45;;;;;;;2.67;1.13;;;;;;;;;;5038363;28;20087;-77
2021/04/02 00:35:11;;;;;;;2.97;1.30;;;;;;;;;;5056731;28;20028;-77
2021/04/02 00:37:37;;;;;;;;;;;;;;;;;;5026335;28;20017;-77
2021/04/02 00:40:06;;;;;;;2.25;1.08;;;;;;;;;;5058157;28;19924;-77
2021/04/02 00:42:31;;;;;;;2.60;1.10;;;;;;;;;;5038931;28;20495;-77
2021/04/02 00:44:57;;;;;;;1.80;1.00;;;;;;;;;;5039107;28;20048;-77
2021/04/02 00:47:22;;;;;;;2.57;1.37;;;;;;;;;;5055565;28;20052;-77
2021/04/02 00:49:47;;;;;;;3.23;1.17;;;;;;;;;;5042076;28;20529;-77
2021/04/02 00:52:13;;;;;;;3.63;1.23;;;;;;;;;;5039989;28;20534;-77
2021/04/02 00:54:38;;;;;;;3.83;1.47;;;;;;;;;;5021776;28;20120;-77
2021/04/02 00:57:04;;;;;;;2.37;1.20;;;;;;;;;;5070879;28;20039;-77
2021/04/02 00:59:29;;;;;;;3.05;1.30;;;;;;;;;;5038435;28;20506;-77
2021/04/02 01:01:55;;;;;;;2.80;1.13;;;;;;;;;;5055447;28;20033;-77
2021/04/02 01:04:20;;;;;;;4.47;1.20;;;;;;;;;;5021773;28;20052;-77
2021/04/02 01:06:46;;;;;;;3.20;1.33;;;;;;;;;;5058379;28;20067;-77
2021/04/02 01:09:12;;;;;;;2.83;1.50;;;;;;;;;;5058677;28;20035;-77
2021/04/02 01:11:37;;;;;;;3.23;1.27;;;;;;;;;;5041649;28;20112;-77
2021/04/02 01:14:02;;;;;;;2.80;1.30;;;;;;;;;;5038100;28;20060;-77
2021/04/02 01:16:32;;;;;;;3.33;1.20;;;;;;;;;;5058335;28;20036;-77
2021/04/02 01:19:00;;;;;;;2.60;1.25;;;;;;;;;;5038080;28;20037;-77
2021/04/02 01:21:29;;;;;;;2.45;1.13;;;;;;;;;;5057838;28;20513;-77
2021/04/02 01:24:10;;;;;;;2.28;1.20;;;;;;;;;;5041692;28;20483;-77
2021/04/02 01:27:02;;;;;;;3.67;1.40;;;;;;;;;;5054811;28;20094;-77
2021/04/02 01:29:33;;;;;;;2.53;1.20;;;;;;;;;;5053072;28;20031;-77
2021/04/02 01:32:00;;;;;;;3.10;1.50;;;;;;;;;;5065321;28;20036;-77
2021/04/02 01:34:30;;;;;;;2.50;1.30;;;;;;;;;;5041681;28;20078;-77
2021/04/02 01:36:56;;;;;;;2.40;1.25;;;;;;;;;;5041598;28;20035;-77
2021/04/02 01:39:21;;;;;;;2.37;1.17;;;;;;;;;;5021111;28;20123;-77
2021/04/02 01:41:48;;;;;;;2.40;1.13;;;;;;;;;;5037914;28;20100;-77
2021/04/02 01:44:14;;;;;;;2.72;1.30;;;;;;;;;;5021567;28;20021;-77
2021/04/02 01:46:39;;;;;;;4.13;1.40;;;;;;;;;;5021171;28;20543;-77
2021/04/02 01:49:05;;;;;;;2.70;1.40;;;;;;;;;;5040458;28;20024;-77
2021/04/02 01:51:30;;;;;;;2.80;1.17;;;;;;;;;;5041228;28;20029;-77
2021/04/02 01:53:57;;;;;;;2.70;1.30;;;;;;;;;;5040971;28;20045;-77
2021/04/02 01:56:22;;;;;;;2.63;1.23;;;;;;;;;;5037259;28;20029;-77
2021/04/02 01:58:47;;;;;;;2.33;1.20;;;;;;;;;;5040899;28;20094;-77
2021/04/02 02:01:14;;;;;;;3.47;1.50;;;;;;;;;;5041060;28;20111;-77
2021/04/02 02:03:40;;;;;;;2.97;1.35;;;;;;;;;;5040684;28;20024;-77
2021/04/02 02:06:05;;;;;;;2.75;1.25;;;;;;;;;;5037078;28;20079;-77
2021/04/02 02:08:31;;;;;;;2.97;1.63;;;;;;;;;;5040491;28;20068;-77
2021/04/02 02:11:08;;;;;;;3.27;1.40;;;;;;;;;;5037199;28;20057;-77
2021/04/02 02:13:33;;;;;;;3.05;1.33;;;;;;;;;;5020748;28;20569;-76
2021/04/02 02:15:58;;;;;;;2.73;1.30;;;;;;;;;;5040461;28;20037;-77
2021/04/02 02:18:25;;;;;;;2.67;1.20;;;;;;;;;;5040744;28;20024;-77
2021/04/02 02:20:50;;;;;;;3.47;1.50;;;;;;;;;;5037672;28;20029;-77
2021/04/02 02:23:16;;;;;;;3.50;1.57;;;;;;;;;;5037295;28;20115;-77
2021/04/02 02:25:41;;;;;;;3.17;1.27;;;;;;;;;;5037069;28;20511;-77
2021/04/02 02:28:06;;;;;;;3.10;1.40;;;;;;;;;;5040244;28;20391;-77
2021/04/02 02:30:32;;;;;;;2.77;1.30;;;;;;;;;;5036855;28;20060;-76
2021/04/02 02:32:57;;;;;;;2.70;1.20;;;;;;;;;;5056566;28;20040;-77
2021/04/02 02:35:23;;;;;;;2.63;1.20;;;;;;;;;;5057146;28;20111;-77
2021/04/02 02:37:48;;;;;;;4.20;1.57;;;;;;;;;;5056862;28;20082;-76
2021/04/02 02:40:19;;;;;;;2.60;1.40;;;;;;;;;;5023284;28;20472;-76
2021/04/02 02:42:44;;;;;;;2.55;1.30;;;;;;;;;;5040647;28;20379;-76
2021/04/02 02:45:11;;;;;;;2.80;1.23;;;;;;;;;;5040144;28;20032;-77
2021/04/02 02:47:36;;;;;;;;;;;;;;;;;;5057085;28;20505;-77
2021/04/02 02:50:07;;;;;;;2.67;1.40;;;;;;;;;;5056377;28;19912;-76
2021/04/02 02:52:33;;;;;;;2.72;1.38;;;;;;;;;;5040533;28;20028;-77
2021/04/02 02:54:58;;;;;;;3.13;1.40;;;;;;;;;;5040188;28;20081;-76
2021/04/02 02:57:24;;;;;;;4.60;1.60;;;;;;;;;;5039526;28;20079;-77
2021/04/02 02:59:49;;;;;;;2.57;1.20;;;;;;;;;;5036172;28;20064;-77
2021/04/02 03:02:15;;;;;;;3.40;1.30;;;;;;;;;;5039349;28;20024;-77
2021/04/02 03:04:41;;;;;;;3.00;1.50;;;;;;;;;;5039796;28;20028;-77
2021/04/02 03:07:06;;;;;;;2.87;1.43;;;;;;;;;;5039627;28;20063;-77
2021/04/02 03:09:31;;;;;;;2.40;1.33;;;;;;;;;;5039342;23;20128;-75
2021/04/02 03:11:57;;;;;;;2.97;1.43;;;;;;;;;;4983488;28;20025;-75
2021/04/02 03:14:24;;;;;;;3.80;1.40;;;;;;;;;;5000259;28;20025;-75
2021/04/02 03:16:50;;;;;;;;;;;;;;;;;;4999487;28;20029;-75
2021/04/02 03:19:19;;;;;;;2.63;1.30;;;;;;;;;;4999180;28;19935;-75
2021/04/02 03:21:46;;;;;;;2.08;1.15;;;;;;;;;;4999918;28;20384;-75
2021/04/02 03:24:11;;;;;;;2.70;1.23;;;;;;;;;;4996837;28;20171;-75
2021/04/02 03:26:36;;;;;;;3.10;1.50;;;;;;;;;;4996652;28;20544;-75
2021/04/02 03:29:02;;;;;;;2.03;1.10;;;;;;;;;;4999946;28;20074;-75
2021/04/02 03:31:28;;;;;;;3.17;1.40;;;;;;;;;;4999517;28;20059;-75
2021/04/02 03:33:54;;;;;;;2.50;1.10;;;;;;;;;;4983472;28;20025;-75
2021/04/02 03:36:20;;;;;;;2.80;1.30;;;;;;;;;;4999556;28;20017;-75
2021/04/02 03:38:46;;;;;;;2.27;1.30;;;;;;;;;;4999548;28;20032;-75
2021/04/02 03:41:13;;;;;;;2.93;1.43;;;;;;;;;;4983534;28;20025;-75
2021/04/02 03:43:39;;;;;;;3.53;1.40;;;;;;;;;;4999627;28;20028;-75
2021/04/02 03:46:04;;;;;;;3.63;1.60;;;;;;;;;;4983338;28;20021;-75
2021/04/02 03:48:31;;;;;;;3.20;1.47;;;;;;;;;;4999553;28;20028;-75
2021/04/02 03:50:56;;;;;;;2.75;1.30;;;;;;;;;;4999430;28;20565;-75
2021/04/02 03:53:24;;;;;;;2.77;1.50;;;;;;;;;;4998903;28;20033;-75
2021/04/02 03:55:50;;;;;;;3.10;1.45;;;;;;;;;;4983333;28;20072;-75
2021/04/02 03:58:16;;;;;;;2.60;1.20;;;;;;;;;;4999170;28;20029;-75
2021/04/02 04:00:59;;;;;;;3.00;1.40;;;;;;;;;;4999039;28;20456;-74
2021/04/02 04:03:24;;;;;;;3.00;1.50;;;;;;;;;;4983908;28;20025;-75
2021/04/02 04:05:51;;;;;;;3.40;1.37;;;;;;;;;;4999314;28;20452;-75
2021/04/02 04:08:17;;;;;;;3.13;1.60;;;;;;;;;;4999343;28;20029;-75
2021/04/02 04:10:42;;;;;;;3.10;1.33;;;;;;;;;;4998041;28;20026;-74
2021/04/02 04:13:09;;;;;;;2.23;1.33;;;;;;;;;;4998979;28;20025;-75
2021/04/02 04:15:34;;;;;;;2.72;1.48;;;;;;;;;;4999024;28;20028;-75
2021/04/02 04:17:59;;;;;;;3.53;1.50;;;;;;;;;;4982719;28;20115;-75
2021/04/02 04:20:25;;;;;;;2.33;1.27;;;;;;;;;;4998557;28;20045;-74
2021/04/02 04:22:50;;;;;;;2.93;1.43;;;;;;;;;;4998987;28;20052;-74
2021/04/02 04:25:19;;;;;;;2.70;1.23;;;;;;;;;;4999269;28;20500;-75
2021/04/02 04:27:45;;;;;;;2.30;1.30;;;;;;;;;;4982855;28;20025;-75
2021/04/02 04:30:12;;;;;;;2.80;1.50;;;;;;;;;;4998855;28;20431;-74
2021/04/02 04:32:39;;;;;;;2.55;1.23;;;;;;;;;;4982634;28;20057;-75
2021/04/02 04:35:06;;;;;;;2.53;1.27;;;;;;;;;;4982966;28;20033;-74
2021/04/02 04:37:31;;;;;;;;;;;;;;;;;;4999340;28;20033;-74
2021/04/02 04:39:57;;;;;;;2.63;1.20;;;;;;;;;;5014819;28;20390;-74
2021/04/02 04:42:22;;;;;;;2.07;1.27;;;;;;;;;;4998695;28;20033;-74
2021/04/02 04:44:49;;;;;;;3.27;1.60;;;;;;;;;;4998619;28;20034;-74
2021/04/02 04:47:15;;;;;;;3.55;1.55;;;;;;;;;;4999254;28;20377;-75
2021/04/02 04:49:40;;;;;;;3.23;1.47;;;;;;;;;;4982195;28;20059;-74
2021/04/02 04:52:06;;;;;;;3.30;1.50;;;;;;;;;;4998632;28;20108;-74
2021/04/02 04:54:31;;;;;;;3.53;1.60;;;;;;;;;;4998573;28;20084;-74
2021/04/02 04:56:57;;;;;;;2.60;1.50;;;;;;;;;;4982328;28;20071;-75
2021/04/02 04:59:22;;;;;;;3.73;1.67;;;;;;;;;;4982030;28;20017;-75
2021/04/02 05:01:48;;;;;;;2.87;1.50;;;;;;;;;;5032349;28;20108;-75
2021/04/02 05:04:13;;;;;;;2.95;1.40;;;;;;;;;;4998709;28;20037;-75
2021/04/02 05:06:39;;;;;;;2.90;1.50;;;;;;;;;;4998610;28;20036;-75
2021/04/02 05:09:04;;;;;;;3.00;1.60;;;;;;;;;;4998492;28;20037;-75
2021/04/02 05:11:30;;;;;;;3.57;1.50;;;;;;;;;;4998085;28;20400;-74
2021/04/02 05:13:56;;;;;;;2.20;1.13;;;;;;;;;;4998506;28;20111;-74
2021/04/02 05:16:22;;;;;;;2.57;1.40;;;;;;;;;;4998507;28;20112;-74
2021/04/02 05:18:47;;;;;;;2.83;1.47;;;;;;;;;;4981891;28;20026;-74
2021/04/02 05:21:12;;;;;;;2.37;1.27;;;;;;;;;;5000115;28;20045;-74
2021/04/02 05:23:38;;;;;;;2.57;1.43;;;;;;;;;;5001926;28;20022;-74
2021/04/02 05:26:10;;;;;;;3.60;1.50;;;;;;;;;;5001954;28;20056;-74
2021/04/02 05:28:36;;;;;;;3.00;1.42;;;;;;;;;;4986009;28;20044;-74
2021/04/02 05:31:01;;;;;;;3.10;1.40;;;;;;;;;;5001601;28;20120;-74
2021/04/02 05:33:26;;;;;;;2.63;1.43;;;;;;;;;;5018394;28;20025;-75
2021/04/02 05:35:52;;;;;;;2.80;1.53;;;;;;;;;;5035797;28;20116;-75
2021/04/02 05:38:17;;;;;;;2.37;1.50;;;;;;;;;;5001582;28;20076;-75
2021/04/02 05:40:42;;;;;;;2.60;1.27;;;;;;;;;;5001490;28;20033;-75
2021/04/02 05:43:21;;;;;;;2.37;1.40;;;;;;;;;;4985442;28;20061;-75
2021/04/02 05:45:46;;;;;;;3.10;1.33;;;;;;;;;;5017973;28;20468;-75
2021/04/02 05:48:12;;;;;;;2.27;1.30;;;;;;;;;;5001531;28;20022;-75
2021/04/02 05:50:37;;;;;;;2.90;1.30;;;;;;;;;;5001211;28;20035;-74
2021/04/02 05:53:04;;;;;;;2.97;1.53;;;;;;;;;;5001477;28;20404;-75
2021/04/02 05:55:32;;;;;;;2.90;1.30;;;;;;;;;;4985073;28;20021;-74
2021/04/02 05:57:58;;;;;;;3.05;1.38;;;;;;;;;;4985236;28;20032;-75
2021/04/02 06:00:24;;;;;;;2.73;1.20;;;;;;;;;;5000978;28;20416;-74
2021/04/02 06:02:49;;;;;;;2.57;1.33;;;;;;;;;;5035128;28;20037;-74
2021/04/02 06:05:14;;;;;;;2.60;1.40;;;;;;;;;;5001212;28;20029;-74
2021/04/02 06:07:40;;;;;;;1.90;1.17;;;;;;;;;;5001137;28;20094;-75
2021/04/02 06:10:06;;;;;;;3.33;1.50;;;;;;;;;;4984501;28;20038;-75
2021/04/02 06:12:35;;;;;;;2.83;1.30;;;;;;;;;;4984356;28;20033;-74
2021/04/02 06:15:03;;;;;;;2.67;1.38;;;;;;;;;;4998576;28;20030;-75
2021/04/02 06:18:10;;;;;;;2.20;1.20;;;;;;;;;;4999801;28;20064;-74
2021/04/02 06:20:37;;;;;;;2.97;1.42;;;;;;;;;;5031804;28;20033;-75
2021/04/02 06:23:06;;;;;;;4.43;1.40;;;;;;;;;;5000896;28;20029;-74
2021/04/02 06:25:32;;;;;;;3.08;1.40;;;;;;;;;;5000908;28;20076;-75
2021/04/02 06:27:58;;;;;;;3.47;1.70;;;;;;;;;;4971234;28;20030;-74
2021/04/02 06:30:24;;;;;;;3.60;1.40;;;;;;;;;;5000505;28;20029;-74
2021/04/02 06:32:51;;;;;;;3.67;1.52;;;;;;;;;;4983327;28;20068;-74
2021/04/02 06:35:17;;;;;;;4.38;1.67;;;;;;;;;;5001147;28;20029;-75
2021/04/02 06:37:42;;;;;;;6.63;2.13;;;;;;;;;;5000816;28;20415;-74
2021/04/02 06:40:18;;;;;;;5.40;2.70;;;;;;;;;;4985558;28;20038;-75
2021/04/02 06:42:44;;;;;;;7.65;2.85;;;;;;;;;;4984396;28;20144;-74
2021/04/02 06:45:10;;;;;;;7.28;3.72;;;;;;;;;;4996204;28;20031;-75
2021/04/02 06:47:36;;;;;;;6.93;3.38;;;;;;;;;;5000334;28;20033;-74
2021/04/02 06:50:13;;;;;;;10.38;3.45;;;;;;;;;;4984119;28;20033;-74
2021/04/02 06:52:38;;;;;;;7.77;4.37;;;;;;;;;;4999912;28;20500;-75
2021/04/02 06:55:04;;;;;;;10.37;3.63;;;;;;;;;;5000161;28;20076;-74
2021/04/02 06:57:30;;;;;;;7.27;3.90;;;;;;;;;;4983899;28;20094;-74
2021/04/02 06:59:55;;;;;;;6.50;3.50;;;;;;;;;;5000014;28;20033;-74
2021/04/02 07:02:21;;;;;;;10.03;4.00;;;;;;;;;;4983273;28;20096;-75
2021/04/02 07:04:46;;;;;;;7.87;3.77;;;;;;;;;;4983758;28;20025;-75
2021/04/02 07:07:11;;;;;;;9.23;3.77;;;;;;;;;;4983941;28;20052;-75
2021/04/02 07:09:38;;;;;;;6.33;3.30;;;;;;;;;;5016228;28;20017;-75
2021/04/02 07:12:04;;;;;;;11.52;3.97;;;;;;;;;;4999221;28;20021;-75
2021/04/02 07:14:30;;;;;;;10.87;3.83;;;;;;;;;;4998289;28;20440;-74
2021/04/02 07:16:56;;;;;;;10.85;3.40;;;;;;;;;;4984179;28;20029;-75
2021/04/02 07:19:21;;;;;;;10.53;4.00;;;;;;;;;;4983086;28;20385;-75
2021/04/02 07:21:49;;;;;;;6.80;3.60;;;;;;;;;;4999679;28;20072;-75
2021/04/02 07:24:19;;;;;;;7.55;3.72;;;;;;;;;;5016552;28;20037;-75
2021/04/02 07:26:45;;;;;;;10.23;3.88;;;;;;;;;;4970379;28;20030;-75
2021/04/02 07:29:10;;;;;;;9.07;4.35;;;;;;;;;;4980170;28;20048;-75
2021/04/02 07:31:36;;;;;;;8.53;4.07;;;;;;;;;;4979602;28;20033;-75
2021/04/02 07:34:01;;;;;;;12.97;4.97;;;;;;;;;;4999587;28;20038;-75
2021/04/02 07:36:27;;;;;;;8.20;3.87;;;;;;;;;;4983264;28;20041;-75
2021/04/02 07:38:53;;;;;;;8.07;3.70;;;;;;;;;;4983478;28;20025;-75
2021/04/02 07:41:19;;;;;;;9.85;4.30;;;;;;;;;;4999199;28;20499;-74
2021/04/02 07:43:55;;;;;;;7.43;3.60;;;;;;;;;;4982770;28;20033;-75
2021/04/02 07:46:27;;;;;;;7.45;3.55;;;;;;;;;;4999689;28;20348;-75
2021/04/02 07:49:07;;;;;;;8.15;3.88;;;;;;;;;;4984250;28;20026;-75
2021/04/02 07:51:47;;;;;;;11.18;4.22;;;;;;;;;;4983354;28;20025;-75
2021/04/02 07:54:22;;;;;;;6.90;3.45;;;;;;;;;;4996108;28;20041;-75
2021/04/02 07:56:51;;;;;;;8.98;3.45;;;;;;;;;;4997759;28;20516;-75
2021/04/02 07:59:16;;;;;;;8.15;3.70;;;;;;;;;;4982806;28;20040;-74
2021/04/02 08:01:57;;;;;;;7.37;3.70;;;;;;;;;;4998587;28;20412;-75
2021/04/02 08:04:53;;;;;;;7.63;3.40;;;;;;;;;;4983478;28;20029;-75
2021/04/02 08:07:30;;;;;;;6.57;3.60;;;;;;;;;;4985420;28;20025;-74
2021/04/02 08:09:56;;;;;;;9.48;4.18;;;;;;;;;;4984418;28;20049;-74
2021/04/02 08:12:21;;;;;;;8.40;4.00;;;;;;;;;;4998957;28;20480;-74
2021/04/02 08:14:50;;;;;;;8.00;3.63;;;;;;;;;;4982757;28;20028;-74
2021/04/02 08:17:21;;;;;;;6.63;3.45;;;;;;;;;;4999523;28;20476;-75
2021/04/02 08:19:47;;;;;;;9.43;3.85;;;;;;;;;;4983039;28;20033;-75
2021/04/02 08:22:14;;;;;;;7.73;3.80;;;;;;;;;;4982760;28;20404;-75
2021/04/02 08:24:42;;;;;;;10.07;4.20;;;;;;;;;;4999361;28;20052;-74
2021/04/02 08:27:07;;;;;;;9.23;4.00;;;;;;;;;;4982349;28;20061;-76
2021/04/02 08:29:33;;;;;;;7.23;3.63;;;;;;;;;;4998942;28;20053;-75
2021/04/02 08:32:04;;;;;;;7.77;3.93;;;;;;;;;;4998871;28;20524;-75
2021/04/02 08:34:31;;;;;;;6.60;3.85;;;;;;;;;;4999270;28;20053;-76
2021/04/02 08:36:58;;;;;;;6.38;3.58;;;;;;;;;;4982404;28;20030;-75
2021/04/02 08:39:24;;;;;;;7.32;3.88;;;;;;;;;;4982596;28;20083;-75
2021/04/02 08:42:05;;;;;;;;;;;;;;;;;;4983163;28;20036;-75
2021/04/02 08:44:31;;;;;;;9.23;3.88;;;;;;;;;;5015060;28;19935;-75
2021/04/02 08:46:58;;;;;;;8.23;3.70;;;;;;;;;;4998552;28;20116;-75
2021/04/02 08:49:24;;;;;;;7.00;3.47;;;;;;;;;;4982737;28;20103;-75
2021/04/02 08:51:49;;;;;;;7.90;3.60;;;;;;;;;;4998665;28;20021;-76
2021/04/02 08:54:19;;;;;;;6.87;3.73;;;;;;;;;;4998703;28;20112;-75
2021/04/02 08:56:45;;;;;;;8.07;3.70;;;;;;;;;;5001082;28;20032;-75
2021/04/02 08:59:11;;;;;;;7.53;3.53;;;;;;;;;;5018718;28;20018;-75
2021/04/02 09:01:46;;;;;;;12.93;3.70;;;;;;;;;;5018585;28;20058;-76
2021/04/02 09:04:12;;;;;;;11.18;4.03;;;;;;;;;;5002293;28;20033;-75
2021/04/02 09:06:37;;;;;;;17.40;4.00;;;;;;;;;;4986370;28;20151;-74
2021/04/02 09:09:03;;;;;;;11.37;3.80;;;;;;;;;;5002063;28;20646;-74
2021/04/02 09:11:28;;;;;;;9.07;3.57;;;;;;;;;;4985992;28;20017;-74
2021/04/02 09:13:54;;;;;;;12.87;4.17;;;;;;;;;;5037947;23;20088;-74
2021/04/02 09:16:20;;;;;;;10.77;3.87;;;;;;;;;;5011560;28;20136;-74
2021/04/02 09:18:55;;;;;;;17.02;3.80;;;;;;;;;;5031231;28;20033;-74
2021/04/02 09:21:22;;;;;;;10.02;3.50;;;;;;;;;;5021295;28;20037;-74
2021/04/02 09:23:48;;;;;;;7.65;3.28;;;;;;;;;;5002122;28;20056;-75
2021/04/02 09:26:13;;;;;;;9.07;3.13;;;;;;;;;;5001190;28;20033;-74
2021/04/02 09:28:39;;;;;;;10.07;2.83;;;;;;;;;;5035802;28;20057;-75
2021/04/02 09:31:26;;;;;;;9.63;3.20;;;;;;;;;;4985261;28;20108;-74
2021/04/02 09:33:56;;;;;;;9.55;3.33;;;;;;;;;;5001496;28;20034;-74
2021/04/02 09:36:22;;;;;;;8.13;2.90;;;;;;;;;;4984827;28;20035;-73
2021/04/02 09:38:48;;;;;;;10.38;3.10;;;;;;;;;;4985462;28;20384;-74
2021/04/02 09:41:14;;;;;;;5.20;2.83;;;;;;;;;;4983900;28;20076;-74
2021/04/02 09:43:48;;;;;;;9.93;2.83;;;;;;;;;;5017609;28;20052;-74
2021/04/02 09:46:15;;;;;;;8.65;2.70;;;;;;;;;;5017858;28;20401;-74
2021/04/02 09:48:40;;;;;;;7.00;2.50;;;;;;;;;;5001876;28;20044;-74
2021/04/02 09:51:06;;;;;;;8.97;2.60;;;;;;;;;;4999434;28;20469;-74
2021/04/02 09:53:31;;;;;;;10.30;2.77;;;;;;;;;;5014299;28;20389;-74
2021/04/02 09:55:57;;;;;;;8.97;2.50;;;;;;;;;;4997936;28;20057;-74
2021/04/02 09:58:22;;;;;;;8.83;2.50;;;;;;;;;;4998011;28;20095;-74
2021/04/02 10:00:48;;;;;;;6.83;2.33;;;;;;;;;;4997941;28;20415;-74
2021/04/02 10:03:13;;;;;;;5.93;2.50;;;;;;;;;;5013247;28;20136;-74
2021/04/02 10:05:39;;;;;;;6.63;2.47;;;;;;;;;;5014278;28;20140;-74
2021/04/02 10:08:05;;;;;;;8.37;2.60;;;;;;;;;;5014366;28;20049;-74
2021/04/02 10:10:30;;;;;;;11.63;2.53;;;;;;;;;;4997900;28;20045;-74
2021/04/02 10:12:55;;;;;;;7.40;2.20;;;;;;;;;;4997379;28;20120;-74
2021/04/02 10:15:21;;;;;;;7.90;2.47;;;;;;;;;;5001089;28;20113;-74
2021/04/02 10:17:46;;;;;;;8.17;2.80;;;;;;;;;;5001266;28;20029;-75
2021/04/02 10:20:12;;;;;;;9.20;2.53;;;;;;;;;;5013773;28;20448;-74
2021/04/02 10:22:37;;;;;;;10.13;2.43;;;;;;;;;;5016214;28;20041;-74
2021/04/02 10:25:03;;;;;;;7.73;2.53;;;;;;;;;;5000693;28;20126;-74
2021/04/02 10:27:28;;;;;;;6.07;2.73;;;;;;;;;;5001012;28;20029;-74
2021/04/02 10:29:54;;;;;;;6.03;2.40;;;;;;;;;;5017081;28;20052;-74
2021/04/02 10:32:19;;;;;;;6.03;2.60;;;;;;;;;;5034466;28;20112;-74
2021/04/02 10:34:44;;;;;;;9.00;2.80;;;;;;;;;;4981185;28;20053;-74
2021/04/02 10:37:11;;;;;;;6.60;2.53;;;;;;;;;;4981119;28;20116;-74
2021/04/02 10:39:36;;;;;;;7.80;2.67;;;;;;;;;;4997493;28;20029;-74
2021/04/02 10:42:01;;;;;;;8.37;2.67;;;;;;;;;;5016663;28;20133;-74
2021/04/02 10:44:27;;;;;;;8.43;3.03;;;;;;;;;;4996856;28;20113;-74
2021/04/02 10:46:52;;;;;;;7.10;3.00;;;;;;;;;;4997163;28;20064;-74
2021/04/02 10:49:17;;;;;;;6.70;2.90;;;;;;;;;;4997223;28;20032;-74
2021/04/02 10:51:43;;;;;;;8.33;3.03;;;;;;;;;;5016662;28;20483;-74
2021/04/02 10:54:08;;;;;;;6.37;2.87;;;;;;;;;;4982830;28;20024;-75
2021/04/02 10:56:33;;;;;;;5.90;3.00;;;;;;;;;;5034145;28;20116;-75
2021/04/02 10:58:59;;;;;;;6.90;2.93;;;;;;;;;;5016617;28;20097;-75
2021/04/02 11:01:24;;;;;;;7.87;3.20;;;;;;;;;;4998829;28;20048;-75
2021/04/02 11:03:50;;;;;;;6.67;2.97;;;;;;;;;;4997200;28;20041;-75
2021/04/02 11:06:15;;;;;;;6.50;3.27;;;;;;;;;;5014657;28;20083;-75
2021/04/02 11:08:40;;;;;;;5.30;3.03;;;;;;;;;;4996866;28;20032;-75
2021/04/02 11:11:06;;;;;;;9.57;3.73;;;;;;;;;;4983943;28;20028;-75
2021/04/02 11:13:31;;;;;;;11.27;3.50;;;;;;;;;;4997840;28;20041;-74
2021/04/02 11:15:57;;;;;;;8.00;3.80;;;;;;;;;;4996989;28;20034;-76
2021/04/02 11:18:22;;;;;;;7.80;3.67;;;;;;;;;;5015240;28;20026;-75
2021/04/02 11:20:47;;;;;;;7.17;3.43;;;;;;;;;;5033520;28;20451;-75
2021/04/02 11:23:16;;;;;;;7.17;3.40;;;;;;;;;;4996325;28;20042;-75
2021/04/02 11:25:42;;;;;;;7.55;3.13;;;;;;;;;;4981144;28;20113;-75
2021/04/02 11:28:07;;;;;;;8.93;3.43;;;;;;;;;;4996475;28;20443;-75
2021/04/02 11:30:32;;;;;;;7.83;3.63;;;;;;;;;;5015939;28;20503;-75
2021/04/02 11:32:58;;;;;;;8.03;3.53;;;;;;;;;;4998709;28;20025;-75
2021/04/02 11:35:23;;;;;;;8.50;3.13;;;;;;;;;;5016027;28;20138;-75
2021/04/02 11:37:48;;;;;;;8.07;3.40;;;;;;;;;;4999414;28;20043;-75
2021/04/02 11:40:14;;;;;;;8.50;3.47;;;;;;;;;;4995903;28;20117;-75
2021/04/02 11:42:40;;;;;;;8.00;3.20;;;;;;;;;;4996241;28;20043;-75
2021/04/02 11:45:05;;;;;;;7.83;3.63;;;;;;;;;;5012778;28;20275;-75
2021/04/02 11:47:31;;;;;;;7.07;3.17;;;;;;;;;;4999220;28;20110;-75
2021/04/02 11:49:56;;;;;;;6.80;3.60;;;;;;;;;;4999194;28;20029;-75
2021/04/02 11:52:22;;;;;;;8.67;3.60;;;;;;;;;;4983161;28;20120;-76
2021/04/02 11:54:47;;;;;;;6.50;3.57;;;;;;;;;;4999275;28;20061;-75
2021/04/02 11:57:12;;;;;;;9.27;3.70;;;;;;;;;;4979465;28;20117;-75
2021/04/02 11:59:38;;;;;;;7.60;3.43;;;;;;;;;;4999102;28;20025;-75
2021/04/02 12:02:03;;;;;;;6.57;3.40;;;;;;;;;;4995705;28;20033;-75
2021/04/02 12:04:28;;;;;;;7.27;3.50;;;;;;;;;;4998998;28;20052;-75
2021/04/02 12:06:54;;;;;;;7.30;3.47;;;;;;;;;;4999154;28;20428;-75
2021/04/02 12:09:19;;;;;;;7.60;3.67;;;;;;;;;;4999108;28;20049;-75
2021/04/02 12:11:44;;;;;;;6.47;3.60;;;;;;;;;;5012236;28;20125;-75
2021/04/02 12:14:10;;;;;;;7.63;3.13;;;;;;;;;;5011955;28;20061;-75
2021/04/02 12:16:36;;;;;;;5.43;2.80;;;;;;;;;;4979660;28;20512;-75
2021/04/02 12:19:03;;;;;;;7.97;3.50;;;;;;;;;;4995963;28;20400;-75
2021/04/02 12:21:28;;;;;;;8.73;3.38;;;;;;;;;;4995405;28;20029;-75
2021/04/02 12:23:53;;;;;;;7.33;3.27;;;;;;;;;;5012242;28;20026;-75
2021/04/02 12:26:19;;;;;;;10.37;3.40;;;;;;;;;;4995804;28;20029;-75
2021/04/02 12:28:44;;;;;;;5.77;3.20;;;;;;;;;;4979580;28;20026;-75
2021/04/02 12:31:10;;;;;;;6.00;3.27;;;;;;;;;;5000457;28;20044;-75
2021/04/02 12:33:35;;;;;;;6.70;3.30;;;;;;;;;;4986837;28;20025;-75
2021/04/02 12:36:00;;;;;;;6.57;2.97;;;;;;;;;;5003057;28;20055;-75
2021/04/02 12:38:26;;;;;;;7.20;3.40;;;;;;;;;;5002941;28;20560;-75
2021/04/02 12:40:51;;;;;;;7.00;3.10;;;;;;;;;;4983248;28;20044;-75
2021/04/02 12:43:17;;;;;;;7.43;3.10;;;;;;;;;;4999700;28;20126;-75
2021/04/02 12:45:42;;;;;;;9.17;3.50;;;;;;;;;;5002625;28;20033;-75
2021/04/02 12:48:08;;;;;;;7.07;2.87;;;;;;;;;;4983131;28;20444;-75
2021/04/02 12:50:33;;;;;;;5.93;3.00;;;;;;;;;;4983312;28;20054;-75
2021/04/02 12:52:59;;;;;;;6.20;3.07;;;;;;;;;;4999472;28;20472;-75
2021/04/02 12:55:26;;;;;;;6.33;3.17;;;;;;;;;;5002965;28;20507;-75
2021/04/02 12:57:51;;;;;;;6.22;3.00;;;;;;;;;;5002443;28;20484;-75
2021/04/02 13:00:18;;;;;;;6.77;2.87;;;;;;;;;;5002888;28;20105;-75
2021/04/02 13:02:44;;;;;;;4.65;2.58;;;;;;;;;;5002469;28;20120;-75
2021/04/02 13:05:10;;;;;;;5.67;2.90;;;;;;;;;;4989439;28;20116;-75
2021/04/02 13:07:35;;;;;;;5.72;2.97;;;;;;;;;;5018159;28;20041;-75
2021/04/02 13:10:01;;;;;;;4.70;2.70;;;;;;;;;;5018926;28;20184;-75
2021/04/02 13:12:26;;;;;;;5.53;2.80;;;;;;;;;;4985385;28;20112;-75
2021/04/02 13:14:51;;;;;;;6.03;2.97;;;;;;;;;;5002202;28;20029;-75
2021/04/02 13:17:17;;;;;;;5.73;2.80;;;;;;;;;;5018723;28;20116;-75
2021/04/02 13:19:42;;;;;;;4.70;2.67;;;;;;;;;;5018857;28;20112;-75
2021/04/02 13:22:09;;;;;;;5.53;2.70;;;;;;;;;;5002022;28;20045;-75
2021/04/02 13:24:35;;;;;;;5.28;2.47;;;;;;;;;;5002467;28;20469;-75
2021/04/02 13:27:00;;;;;;;5.63;2.97;;;;;;;;;;5002472;28;20176;-76
2021/04/02 13:29:25;;;;;;;5.83;2.80;;;;;;;;;;4985912;28;20067;-75
2021/04/02 13:31:51;;;;;;;5.53;2.67;;;;;;;;;;5002167;28;20496;-75
2021/04/02 13:34:16;;;;;;;6.70;2.93;;;;;;;;;;4985454;28;20447;-75
2021/04/02 13:36:42;;;;;;;5.80;2.83;;;;;;;;;;5002061;28;20049;-75
2021/04/02 13:39:07;;;;;;;4.93;2.50;;;;;;;;;;4985649;28;20032;-75
2021/04/02 13:41:32;;;;;;;5.97;2.83;;;;;;;;;;5017290;28;20117;-75
2021/04/02 13:43:58;;;;;;;6.00;2.80;;;;;;;;;;5002059;28;20438;-75
2021/04/02 13:46:23;;;;;;;4.60;2.47;;;;;;;;;;5001769;28;20057;-75
2021/04/02 13:48:48;;;;;;;4.87;2.67;;;;;;;;;;5001193;28;20021;-75
2021/04/02 13:51:14;;;;;;;5.20;2.37;;;;;;;;;;5001621;28;20117;-75
2021/04/02 13:53:39;;;;;;;5.43;2.77;;;;;;;;;;5017980;28;20096;-75
2021/04/02 13:56:06;;;;;;;5.07;2.60;;;;;;;;;;4985443;28;20571;-75
2021/04/02 13:58:31;;;;;;;;;;;;;;;;;;5001548;28;20022;-75
2021/04/02 14:00:56;;;;;;;4.77;2.20;;;;;;;;;;5017909;28;19915;-75
2021/04/02 14:03:22;;;;;;;6.47;2.80;;;;;;;;;;5035589;28;20451;-75
2021/04/02 14:05:47;;;;;;;4.90;2.50;;;;;;;;;;5017909;28;20025;-75
2021/04/02 14:08:12;;;;;;;3.80;2.20;;;;;;;;;;5017625;28;20108;-75
2021/04/02 14:10:39;;;;;;;5.67;2.67;;;;;;;;;;5000927;28;20080;-75
2021/04/02 14:13:05;;;;;;;;;;;;;;;;;;5001610;28;20032;-76
2021/04/02 14:15:30;;;;;;;5.47;2.53;;;;;;;;;;5017894;28;19913;-75
2021/04/02 14:17:56;;;;;;;4.93;2.40;;;;;;;;;;4999205;28;20025;-75
2021/04/02 14:20:24;;;;;;;5.10;2.17;;;;;;;;;;4985360;28;20117;-78
2021/04/02 14:22:59;;;;;;;4.47;2.28;;;;;;;;;;4997827;28;20034;-74
2021/04/02 14:25:25;;;;;;;5.38;2.63;;;;;;;;;;4998285;28;20025;-75
2021/04/02 14:27:51;;;;;;;4.43;2.40;;;;;;;;;;4997742;28;20057;-75
2021/04/02 14:30:26;;;;;;;3.92;2.20;;;;;;;;;;5017395;28;20112;-74
2021/04/02 14:32:51;;;;;;;4.38;2.20;;;;;;;;;;5017148;28;20029;-75
2021/04/02 14:35:17;;;;;;;4.50;2.57;;;;;;;;;;4984427;28;20030;-74
2021/04/02 14:37:43;;;;;;;5.25;2.60;;;;;;;;;;4984602;28;20116;-74
2021/04/02 14:40:13;;;;;;;5.60;2.43;;;;;;;;;;5013508;28;20113;-74
2021/04/02 14:42:39;;;;;;;4.65;2.30;;;;;;;;;;4998233;28;20029;-74